^^
Station Historical Data
Daily Summary for January 6, 2018 Units:  Both    English   Metric
« Previous Day
Next Day »
Daily Weekly Monthly Yearly Custom
  High: Low: Average:
Temperature: TemperatureF °F /  -17.8 °C 66.0 °F /  18.9 °C 81.4 °F /  27.4 °C
Dew Point: DewpointF °F /  -17.8 °C 33.6 °F /  0.9 °C 40.6 °F /  4.8 °C
Humidity: Humidity% 13% 25%
Wind Speed: WindSpeedMPHmph /  0km/h - 1.8mph /  2.9km/h
Wind Gust: WindSpeedGustMPHmph /  0km/h - -
Wind- - South
Pressure: PressureIn in /  0 hPa 30.02 in /  1016.5 hPa -
Precipitation: 0.00 in /  0 mm    
Historical Graphs
 
 
Tabular Data for January 6, 2018
Time Temperature Dew Point Pressure Wind Wind Speed Wind Gust Humidity Rainfall Rate (Hourly) solar Conditions
TemperatureF °F /  -17.8 °C DewpointF °F /  -17.8 °C PressureInin /  0hPa Calm     Humidity% HourlyPrecipInin /  0mm SolarRadiationWatts/m^2 W/m2 Conditions
00:04 77.7 °F /  25.4 °C 43.0 °F /  6.1 °C 30.16in /  1021.2hPa SSW 4.0mph /  6.4km/h 18.0mph /  29km/h 29% 0.00in /  0mm 0.0 W/m2
00:09 77.5 °F /  25.3 °C 42.8 °F /  6 °C 30.16in /  1021.2hPa ESE 6.9mph /  11.1km/h 11.0mph /  17.7km/h 29% 0.00in /  0mm 0.0 W/m2
00:14 77.4 °F /  25.2 °C 42.6 °F /  5.9 °C 30.16in /  1021.2hPa ESE 6.9mph /  11.1km/h 11.0mph /  17.7km/h 29% 0.00in /  0mm 0.0 W/m2
00:20 77.2 °F /  25.1 °C 43.3 °F /  6.3 °C 30.16in /  1021.2hPa ESE 8.9mph /  14.3km/h 15.0mph /  24.1km/h 30% 0.00in /  0mm 0.0 W/m2
00:22 77.2 °F /  25.1 °C 43.3 °F /  6.3 °C 30.16in /  1021.2hPa SE 11.0mph /  17.7km/h 13.0mph /  20.9km/h 30% 0.00in /  0mm 0.0 W/m2
00:27 77.2 °F /  25.1 °C 43.3 °F /  6.3 °C 30.16in /  1021.2hPa SSE 4.0mph /  6.4km/h 9.0mph /  14.5km/h 30% 0.00in /  0mm 0.0 W/m2
00:30 77.0 °F /  25 °C 43.2 °F /  6.2 °C 30.16in /  1021.2hPa South 0.9mph /  1.4km/h 14.0mph /  22.5km/h 30% 0.00in /  0mm 0.0 W/m2
00:42 76.6 °F /  24.8 °C 43.7 °F /  6.5 °C 30.15in /  1020.9hPa SSE 6.0mph /  9.7km/h 8.0mph /  12.9km/h 31% 0.00in /  0mm 0.0 W/m2
00:48 76.6 °F /  24.8 °C 43.7 °F /  6.5 °C 30.15in /  1020.9hPa ESE 8.9mph /  14.3km/h 10.0mph /  16.1km/h 31% 0.00in /  0mm 0.0 W/m2
00:53 76.5 °F /  24.7 °C 43.5 °F /  6.4 °C 30.15in /  1020.9hPa SSE 6.9mph /  11.1km/h 9.0mph /  14.5km/h 31% 0.00in /  0mm 0.0 W/m2
00:58 76.3 °F /  24.6 °C 43.3 °F /  6.3 °C 30.15in /  1020.9hPa SSE 2.9mph /  4.7km/h 9.0mph /  14.5km/h 31% 0.00in /  0mm 0.0 W/m2
00:59 76.3 °F /  24.6 °C 43.3 °F /  6.3 °C 30.15in /  1020.9hPa ESE 2.0mph /  3.2km/h 11.0mph /  17.7km/h 31% 0.00in /  0mm 0.0 W/m2
01:03 75.9 °F /  24.4 °C 43.9 °F /  6.6 °C 30.15in /  1020.9hPa ESE 4.0mph /  6.4km/h 8.0mph /  12.9km/h 32% 0.00in /  0mm 0.0 W/m2
01:06 75.9 °F /  24.4 °C 43.9 °F /  6.6 °C 30.14in /  1020.5hPa SE 2.0mph /  3.2km/h 11.0mph /  17.7km/h 32% 0.00in /  0mm 0.0 W/m2
01:11 75.9 °F /  24.4 °C 43.9 °F /  6.6 °C 30.14in /  1020.5hPa South 6.0mph /  9.7km/h 10.0mph /  16.1km/h 32% 0.00in /  0mm 0.0 W/m2
01:17 75.9 °F /  24.4 °C 43.9 °F /  6.6 °C 30.14in /  1020.5hPa SE 6.9mph /  11.1km/h 10.0mph /  16.1km/h 32% 0.00in /  0mm 0.0 W/m2
01:29 75.9 °F /  24.4 °C 43.9 °F /  6.6 °C 30.14in /  1020.5hPa SE 0.9mph /  1.4km/h 10.0mph /  16.1km/h 32% 0.00in /  0mm 0.0 W/m2
01:34 75.7 °F /  24.3 °C 43.7 °F /  6.5 °C 30.14in /  1020.5hPa SSW 4.0mph /  6.4km/h 10.0mph /  16.1km/h 32% 0.00in /  0mm 0.0 W/m2
01:41 75.7 °F /  24.3 °C 43.7 °F /  6.5 °C 30.14in /  1020.5hPa SSE 6.0mph /  9.7km/h 9.0mph /  14.5km/h 32% 0.00in /  0mm 0.0 W/m2
01:47 75.9 °F /  24.4 °C 43.9 °F /  6.6 °C 30.14in /  1020.5hPa SSE 6.0mph /  9.7km/h 10.0mph /  16.1km/h 32% 0.00in /  0mm 0.0 W/m2
01:52 75.9 °F /  24.4 °C 43.2 °F /  6.2 °C 30.13in /  1020.2hPa SE 2.0mph /  3.2km/h 10.0mph /  16.1km/h 31% 0.00in /  0mm 0.0 W/m2
01:57 75.9 °F /  24.4 °C 43.9 °F /  6.6 °C 30.13in /  1020.2hPa SE 2.0mph /  3.2km/h 9.0mph /  14.5km/h 32% 0.00in /  0mm 0.0 W/m2
02:04 75.9 °F /  24.4 °C 43.2 °F /  6.2 °C 30.13in /  1020.2hPa ESE 6.0mph /  9.7km/h 12.0mph /  19.3km/h 31% 0.00in /  0mm 0.0 W/m2
02:12 75.9 °F /  24.4 °C 43.9 °F /  6.6 °C 30.13in /  1020.2hPa SE 4.0mph /  6.4km/h 9.0mph /  14.5km/h 32% 0.00in /  0mm 0.0 W/m2
02:17 75.9 °F /  24.4 °C 43.9 °F /  6.6 °C 30.13in /  1020.2hPa Calm   7.0mph /  11.3km/h 32% 0.00in /  0mm 0.0 W/m2
02:22 75.7 °F /  24.3 °C 43.7 °F /  6.5 °C 30.13in /  1020.2hPa Calm   4.0mph /  6.4km/h 32% 0.00in /  0mm 0.0 W/m2
02:28 75.7 °F /  24.3 °C 43.7 °F /  6.5 °C 30.13in /  1020.2hPa SSE 2.9mph /  4.7km/h 9.0mph /  14.5km/h 32% 0.00in /  0mm 0.0 W/m2
02:30 75.7 °F /  24.3 °C 43.7 °F /  6.5 °C 30.13in /  1020.2hPa SSE 6.9mph /  11.1km/h 8.0mph /  12.9km/h 32% 0.00in /  0mm 0.0 W/m2
02:34 75.6 °F /  24.2 °C 43.7 °F /  6.5 °C 30.13in /  1020.2hPa SE 2.9mph /  4.7km/h 4.0mph /  6.4km/h 32% 0.00in /  0mm 0.0 W/m2
02:39 75.6 °F /  24.2 °C 43.7 °F /  6.5 °C 30.12in /  1019.9hPa SE 4.0mph /  6.4km/h 7.0mph /  11.3km/h 32% 0.00in /  0mm 0.0 W/m2
02:44 75.4 °F /  24.1 °C 43.5 °F /  6.4 °C 30.12in /  1019.9hPa ESE 2.0mph /  3.2km/h 5.0mph /  8km/h 32% 0.00in /  0mm 0.0 W/m2
02:56 75.0 °F /  23.9 °C 43.9 °F /  6.6 °C 30.12in /  1019.9hPa SE 2.9mph /  4.7km/h 6.0mph /  9.7km/h 33% 0.00in /  0mm 0.0 W/m2
03:00 74.8 °F /  23.8 °C 43.9 °F /  6.6 °C 30.12in /  1019.9hPa Calm   5.0mph /  8km/h 33% 0.00in /  0mm 0.0 W/m2
03:06 74.8 °F /  23.8 °C 43.9 °F /  6.6 °C 30.12in /  1019.9hPa South 0.9mph /  1.4km/h 4.0mph /  6.4km/h 33% 0.00in /  0mm 0.0 W/m2
03:13 74.7 °F /  23.7 °C 43.7 °F /  6.5 °C 30.12in /  1019.9hPa SSE 2.9mph /  4.7km/h 6.0mph /  9.7km/h 33% 0.00in /  0mm 0.0 W/m2
03:16 74.7 °F /  23.7 °C 43.7 °F /  6.5 °C 30.12in /  1019.9hPa Calm   7.0mph /  11.3km/h 33% 0.00in /  0mm 0.0 W/m2
03:21 74.5 °F /  23.6 °C 43.5 °F /  6.4 °C 30.12in /  1019.9hPa South 2.0mph /  3.2km/h 5.0mph /  8km/h 33% 0.00in /  0mm 0.0 W/m2
03:25 74.5 °F /  23.6 °C 44.2 °F /  6.8 °C 30.12in /  1019.9hPa SSE 2.9mph /  4.7km/h 5.0mph /  8km/h 34% 0.00in /  0mm 0.0 W/m2
03:31 74.1 °F /  23.4 °C 43.9 °F /  6.6 °C 30.12in /  1019.9hPa SSE 2.0mph /  3.2km/h 3.0mph /  4.8km/h 34% 0.00in /  0mm 0.0 W/m2
03:36 74.1 °F /  23.4 °C 43.9 °F /  6.6 °C 30.11in /  1019.5hPa SSE 2.0mph /  3.2km/h 2.0mph /  3.2km/h 34% 0.00in /  0mm 0.0 W/m2
03:37 73.9 °F /  23.3 °C 43.9 °F /  6.6 °C 30.12in /  1019.9hPa SE 2.9mph /  4.7km/h 3.0mph /  4.8km/h 34% 0.00in /  0mm 0.0 W/m2
03:42 73.8 °F /  23.2 °C 43.7 °F /  6.5 °C 30.12in /  1019.9hPa SE 2.9mph /  4.7km/h 5.0mph /  8km/h 34% 0.00in /  0mm 0.0 W/m2
03:47 73.8 °F /  23.2 °C 43.7 °F /  6.5 °C 30.11in /  1019.5hPa SE 0.9mph /  1.4km/h 5.0mph /  8km/h 34% 0.00in /  0mm 0.0 W/m2
03:54 73.6 °F /  23.1 °C 43.5 °F /  6.4 °C 30.11in /  1019.5hPa South 4.9mph /  7.9km/h 5.0mph /  8km/h 34% 0.00in /  0mm 0.0 W/m2
04:00 73.6 °F /  23.1 °C 44.2 °F /  6.8 °C 30.11in /  1019.5hPa ESE 2.0mph /  3.2km/h 5.0mph /  8km/h 35% 0.00in /  0mm 0.0 W/m2
04:05 73.6 °F /  23.1 °C 43.5 °F /  6.4 °C 30.11in /  1019.5hPa SE 0.9mph /  1.4km/h 4.0mph /  6.4km/h 34% 0.00in /  0mm 0.0 W/m2
04:11 73.6 °F /  23.1 °C 44.2 °F /  6.8 °C 30.11in /  1019.5hPa SE 0.9mph /  1.4km/h 4.0mph /  6.4km/h 35% 0.00in /  0mm 0.0 W/m2
04:17 73.4 °F /  23 °C 44.1 °F /  6.7 °C 30.11in /  1019.5hPa SE 0.9mph /  1.4km/h 3.0mph /  4.8km/h 35% 0.00in /  0mm 0.0 W/m2
04:21 73.2 °F /  22.9 °C 43.9 °F /  6.6 °C 30.11in /  1019.5hPa East 0.9mph /  1.4km/h 4.0mph /  6.4km/h 35% 0.00in /  0mm 0.0 W/m2
04:26 73.0 °F /  22.8 °C 43.7 °F /  6.5 °C 30.11in /  1019.5hPa ESE 2.0mph /  3.2km/h 6.0mph /  9.7km/h 35% 0.00in /  0mm 0.0 W/m2
04:32 72.9 °F /  22.7 °C 43.5 °F /  6.4 °C 30.10in /  1019.2hPa Calm   1.0mph /  1.6km/h 35% 0.00in /  0mm 0.0 W/m2
04:38 72.3 °F /  22.4 °C 43.9 °F /  6.6 °C 30.10in /  1019.2hPa Calm     36% 0.00in /  0mm 0.0 W/m2
04:47 71.8 °F /  22.1 °C 44.1 °F /  6.7 °C 30.10in /  1019.2hPa Calm     37% 0.00in /  0mm 0.0 W/m2
04:52 71.4 °F /  21.9 °C 43.7 °F /  6.5 °C 30.11in /  1019.5hPa Calm     37% 0.00in /  0mm 0.0 W/m2
04:57 71.1 °F /  21.7 °C 43.5 °F /  6.4 °C 30.11in /  1019.5hPa Calm     37% 0.00in /  0mm 0.0 W/m2
05:02 70.7 °F /  21.5 °C 43.9 °F /  6.6 °C 30.10in /  1019.2hPa Calm     38% 0.00in /  0mm 0.0 W/m2
05:07 70.3 °F /  21.3 °C 43.5 °F /  6.4 °C 30.11in /  1019.5hPa Calm     38% 0.00in /  0mm 0.0 W/m2
05:12 70.0 °F /  21.1 °C 43.9 °F /  6.6 °C 30.11in /  1019.5hPa Calm   1.0mph /  1.6km/h 39% 0.00in /  0mm 0.0 W/m2
05:17 69.6 °F /  20.9 °C 44.2 °F /  6.8 °C 30.11in /  1019.5hPa Calm     40% 0.00in /  0mm 0.0 W/m2
05:22 69.3 °F /  20.7 °C 43.9 °F /  6.6 °C 30.11in /  1019.5hPa Calm   1.0mph /  1.6km/h 40% 0.00in /  0mm 0.0 W/m2
05:28 68.7 °F /  20.4 °C 44.1 °F /  6.7 °C 30.11in /  1019.5hPa Calm   1.0mph /  1.6km/h 41% 0.00in /  0mm 0.0 W/m2
05:39 68.2 °F /  20.1 °C 43.5 °F /  6.4 °C 30.11in /  1019.5hPa Calm   1.0mph /  1.6km/h 41% 0.00in /  0mm 0.0 W/m2
05:44 67.8 °F /  19.9 °C 43.3 °F /  6.3 °C 30.11in /  1019.5hPa East 0.9mph /  1.4km/h 3.0mph /  4.8km/h 41% 0.00in /  0mm 0.0 W/m2
05:49 67.6 °F /  19.8 °C 43.7 °F /  6.5 °C 30.12in /  1019.9hPa Calm   3.0mph /  4.8km/h 42% 0.00in /  0mm 0.0 W/m2
05:50 67.6 °F /  19.8 °C 43.7 °F /  6.5 °C 30.12in /  1019.9hPa Calm   1.0mph /  1.6km/h 42% 0.00in /  0mm 0.0 W/m2
05:56 67.5 °F /  19.7 °C 43.5 °F /  6.4 °C 30.11in /  1019.5hPa Calm   1.0mph /  1.6km/h 42% 0.00in /  0mm 0.0 W/m2
06:01 67.3 °F /  19.6 °C 44.1 °F /  6.7 °C 30.12in /  1019.9hPa Calm   2.0mph /  3.2km/h 43% 0.00in /  0mm 0.0 W/m2
06:08 66.9 °F /  19.4 °C 43.2 °F /  6.2 °C 30.12in /  1019.9hPa Calm   3.0mph /  4.8km/h 42% 0.00in /  0mm 0.0 W/m2
06:13 66.9 °F /  19.4 °C 43.7 °F /  6.5 °C 30.12in /  1019.9hPa Calm   1.0mph /  1.6km/h 43% 0.00in /  0mm 0.0 W/m2
06:18 66.7 °F /  19.3 °C 43.5 °F /  6.4 °C 30.12in /  1019.9hPa Calm     43% 0.00in /  0mm 5.0 W/m2
06:19 66.7 °F /  19.3 °C 43.5 °F /  6.4 °C 30.12in /  1019.9hPa ENE 0.9mph /  1.4km/h 1.0mph /  1.6km/h 43% 0.00in /  0mm 5.0 W/m2
06:24 66.6 °F /  19.2 °C 43.3 °F /  6.3 °C 30.12in /  1019.9hPa East 0.9mph /  1.4km/h 2.0mph /  3.2km/h 43% 0.00in /  0mm 7.0 W/m2
06:30 66.6 °F /  19.2 °C 44.1 °F /  6.7 °C 30.13in /  1020.2hPa Calm   3.0mph /  4.8km/h 44% 0.00in /  0mm 11.0 W/m2
06:36 66.4 °F /  19.1 °C 43.9 °F /  6.6 °C 30.12in /  1019.9hPa Calm   2.0mph /  3.2km/h 44% 0.00in /  0mm 12.0 W/m2
06:42 66.4 °F /  19.1 °C 44.4 °F /  6.9 °C 30.13in /  1020.2hPa Calm     45% 0.00in /  0mm 16.0 W/m2
06:48 66.0 °F /  18.9 °C 44.1 °F /  6.7 °C 30.13in /  1020.2hPa Calm   1.0mph /  1.6km/h 45% 0.00in /  0mm 18.0 W/m2
06:51 66.0 °F /  18.9 °C 44.1 °F /  6.7 °C 30.13in /  1020.2hPa East 0.9mph /  1.4km/h 2.0mph /  3.2km/h 45% 0.00in /  0mm 19.0 W/m2
06:57 66.0 °F /  18.9 °C 44.1 °F /  6.7 °C 30.13in /  1020.2hPa Calm   3.0mph /  4.8km/h 45% 0.00in /  0mm 21.0 W/m2
07:02 66.4 °F /  19.1 °C 45.0 °F /  7.2 °C 30.13in /  1020.2hPa Calm   1.0mph /  1.6km/h 46% 0.00in /  0mm 23.0 W/m2
07:07 66.4 °F /  19.1 °C 45.0 °F /  7.2 °C 30.13in /  1020.2hPa Calm   3.0mph /  4.8km/h 46% 0.00in /  0mm 25.0 W/m2
07:12 66.6 °F /  19.2 °C 45.1 °F /  7.3 °C 30.14in /  1020.5hPa Calm   2.0mph /  3.2km/h 46% 0.00in /  0mm 26.0 W/m2
07:19 66.7 °F /  19.3 °C 45.9 °F /  7.7 °C 30.13in /  1020.2hPa Calm   3.0mph /  4.8km/h 47% 0.00in /  0mm 28.0 W/m2
07:24 67.1 °F /  19.5 °C 45.7 °F /  7.6 °C 30.14in /  1020.5hPa Calm   3.0mph /  4.8km/h 46% 0.00in /  0mm 28.0 W/m2
07:30 67.5 °F /  19.7 °C 46.0 °F /  7.8 °C 30.14in /  1020.5hPa Calm   3.0mph /  4.8km/h 46% 0.00in /  0mm 30.0 W/m2
07:35 67.8 °F /  19.9 °C 45.7 °F /  7.6 °C 30.14in /  1020.5hPa Calm   1.0mph /  1.6km/h 45% 0.00in /  0mm 32.0 W/m2
07:40 68.4 °F /  20.2 °C 46.2 °F /  7.9 °C 30.14in /  1020.5hPa Calm   2.0mph /  3.2km/h 45% 0.00in /  0mm 33.0 W/m2
07:41 68.4 °F /  20.2 °C 45.7 °F /  7.6 °C 30.14in /  1020.5hPa Calm   2.0mph /  3.2km/h 44% 0.00in /  0mm 33.0 W/m2
07:45 68.7 °F /  20.4 °C 45.9 °F /  7.7 °C 30.14in /  1020.5hPa Calm   1.0mph /  1.6km/h 44% 0.00in /  0mm 44.0 W/m2
07:50 69.4 °F /  20.8 °C 46.0 °F /  7.8 °C 30.14in /  1020.5hPa Calm   1.0mph /  1.6km/h 43% 0.00in /  0mm 144.0 W/m2
07:55 70.2 °F /  21.2 °C 46.0 °F /  7.8 °C 30.14in /  1020.5hPa Calm   1.0mph /  1.6km/h 42% 0.00in /  0mm 339.0 W/m2
07:56 70.2 °F /  21.2 °C 46.0 °F /  7.8 °C 30.14in /  1020.5hPa Calm     42% 0.00in /  0mm 348.0 W/m2
08:02 71.1 °F /  21.7 °C 46.2 °F /  7.9 °C 30.14in /  1020.5hPa Calm     41% 0.00in /  0mm 373.0 W/m2
08:07 72.3 °F /  22.4 °C 46.6 °F /  8.1 °C 30.14in /  1020.5hPa Calm     40% 0.00in /  0mm 394.0 W/m2
08:12 73.6 °F /  23.1 °C 45.0 °F /  7.2 °C 30.14in /  1020.5hPa Calm   1.0mph /  1.6km/h 36% 0.00in /  0mm 413.0 W/m2
08:18 75.4 °F /  24.1 °C 45.9 °F /  7.7 °C 30.14in /  1020.5hPa Calm   2.0mph /  3.2km/h 35% 0.00in /  0mm 438.0 W/m2
08:23 76.3 °F /  24.6 °C 45.9 °F /  7.7 °C 30.14in /  1020.5hPa Calm     34% 0.00in /  0mm 459.0 W/m2
08:30 77.7 °F /  25.4 °C 41.0 °F /  5 °C 30.14in /  1020.5hPa Calm   1.0mph /  1.6km/h 27% 0.00in /  0mm 490.0 W/m2
08:35 79.0 °F /  26.1 °C 42.1 °F /  5.6 °C 30.14in /  1020.5hPa SW 0.9mph /  1.4km/h 2.0mph /  3.2km/h 27% 0.00in /  0mm 508.0 W/m2
08:40 79.3 °F /  26.3 °C 42.4 °F /  5.8 °C 30.14in /  1020.5hPa Calm   2.0mph /  3.2km/h 27% 0.00in /  0mm 527.0 W/m2
08:45 79.9 °F /  26.6 °C 41.0 °F /  5 °C 30.14in /  1020.5hPa Calm   1.0mph /  1.6km/h 25% 0.00in /  0mm 545.0 W/m2
08:47 80.1 °F /  26.7 °C 41.0 °F /  5 °C 30.14in /  1020.5hPa Calm     25% 0.00in /  0mm 552.0 W/m2
08:51 80.4 °F /  26.9 °C 41.4 °F /  5.2 °C 30.14in /  1020.5hPa NW 0.9mph /  1.4km/h 1.0mph /  1.6km/h 25% 0.00in /  0mm 559.0 W/m2
08:56 81.3 °F /  27.4 °C 39.9 °F /  4.4 °C 30.14in /  1020.5hPa Calm   3.0mph /  4.8km/h 23% 0.00in /  0mm 584.0 W/m2
08:58 81.9 °F /  27.7 °C 40.5 °F /  4.7 °C 30.15in /  1020.9hPa Calm   1.0mph /  1.6km/h 23% 0.00in /  0mm 589.0 W/m2
09:02 82.4 °F /  28 °C 41.9 °F /  5.5 °C 30.14in /  1020.5hPa West 0.9mph /  1.4km/h 3.0mph /  4.8km/h 24% 0.00in /  0mm 605.0 W/m2
09:07 82.8 °F /  28.2 °C 41.2 °F /  5.1 °C 30.14in /  1020.5hPa Calm   1.0mph /  1.6km/h 23% 0.00in /  0mm 615.0 W/m2
09:12 83.3 °F /  28.5 °C 40.5 °F /  4.7 °C 30.14in /  1020.5hPa Calm   3.0mph /  4.8km/h 22% 0.00in /  0mm 638.0 W/m2
09:17 84.0 °F /  28.9 °C 39.9 °F /  4.4 °C 30.14in /  1020.5hPa NNE 4.0mph /  6.4km/h 4.0mph /  6.4km/h 21% 0.00in /  0mm 657.0 W/m2
09:23 84.7 °F /  29.3 °C 39.2 °F /  4 °C 30.14in /  1020.5hPa NW 0.9mph /  1.4km/h 5.0mph /  8km/h 20% 0.00in /  0mm 682.0 W/m2
09:28 84.9 °F /  29.4 °C 39.4 °F /  4.1 °C 30.14in /  1020.5hPa Calm   3.0mph /  4.8km/h 20% 0.00in /  0mm 700.0 W/m2
09:34 85.5 °F /  29.7 °C 39.7 °F /  4.3 °C 30.14in /  1020.5hPa NNE 6.0mph /  9.7km/h 7.0mph /  11.3km/h 20% 0.00in /  0mm 719.0 W/m2
09:42 85.8 °F /  29.9 °C 37.4 °F /  3 °C 30.14in /  1020.5hPa NNW 6.0mph /  9.7km/h 6.0mph /  9.7km/h 18% 0.00in /  0mm 742.0 W/m2
09:47 86.2 °F /  30.1 °C 37.8 °F /  3.2 °C 30.14in /  1020.5hPa WSW 0.9mph /  1.4km/h 3.0mph /  4.8km/h 18% 0.00in /  0mm 758.0 W/m2
09:52 86.0 °F /  30 °C 37.6 °F /  3.1 °C 30.14in /  1020.5hPa NNW 0.9mph /  1.4km/h 3.0mph /  4.8km/h 18% 0.00in /  0mm 782.0 W/m2
09:57 86.2 °F /  30.1 °C 37.8 °F /  3.2 °C 30.14in /  1020.5hPa NNE 4.0mph /  6.4km/h 6.0mph /  9.7km/h 18% 0.00in /  0mm 457.0 W/m2
10:02 86.4 °F /  30.2 °C 37.9 °F /  3.3 °C 30.14in /  1020.5hPa WNW 4.0mph /  6.4km/h 8.0mph /  12.9km/h 18% 0.00in /  0mm 457.0 W/m2
10:04 86.4 °F /  30.2 °C 39.2 °F /  4 °C 30.15in /  1020.9hPa NNW 2.9mph /  4.7km/h 4.0mph /  6.4km/h 19% 0.00in /  0mm 299.0 W/m2
10:07 86.4 °F /  30.2 °C 39.2 °F /  4 °C 30.15in /  1020.9hPa Calm   1.0mph /  1.6km/h 19% 0.00in /  0mm 299.0 W/m2
10:12 86.5 °F /  30.3 °C 39.4 °F /  4.1 °C 30.15in /  1020.9hPa North 0.9mph /  1.4km/h 6.0mph /  9.7km/h 19% 0.00in /  0mm 566.0 W/m2
10:17 86.5 °F /  30.3 °C 39.4 °F /  4.1 °C 30.15in /  1020.9hPa NE 0.9mph /  1.4km/h 3.0mph /  4.8km/h 19% 0.00in /  0mm 197.0 W/m2
10:24 86.7 °F /  30.4 °C 39.6 °F /  4.2 °C 30.14in /  1020.5hPa WNW 2.0mph /  3.2km/h 4.0mph /  6.4km/h 19% 0.00in /  0mm 870.0 W/m2
10:29 87.3 °F /  30.7 °C 38.7 °F /  3.7 °C 30.14in /  1020.5hPa NNW 2.0mph /  3.2km/h 4.0mph /  6.4km/h 18% 0.00in /  0mm 926.0 W/m2
10:34 87.6 °F /  30.9 °C 37.4 °F /  3 °C 30.15in /  1020.9hPa Calm   4.0mph /  6.4km/h 17% 0.00in /  0mm 719.0 W/m2
10:39 88.0 °F /  31.1 °C 39.2 °F /  4 °C 30.15in /  1020.9hPa South 4.0mph /  6.4km/h 5.0mph /  8km/h 18% 0.00in /  0mm 940.0 W/m2
10:44 87.6 °F /  30.9 °C 38.8 °F /  3.8 °C 30.14in /  1020.5hPa NNW 4.9mph /  7.9km/h 6.0mph /  9.7km/h 18% 0.00in /  0mm 1013.0 W/m2
10:49 88.0 °F /  31.1 °C 39.2 °F /  4 °C 30.14in /  1020.5hPa Calm   4.0mph /  6.4km/h 18% 0.00in /  0mm 976.0 W/m2
10:54 88.3 °F /  31.3 °C 37.9 °F /  3.3 °C 30.14in /  1020.5hPa NNE 4.9mph /  7.9km/h 8.0mph /  12.9km/h 17% 0.00in /  0mm 956.0 W/m2
10:59 88.5 °F /  31.4 °C 39.6 °F /  4.2 °C 30.14in /  1020.5hPa WSW 2.9mph /  4.7km/h 4.0mph /  6.4km/h 18% 0.00in /  0mm 963.0 W/m2
11:04 88.9 °F /  31.6 °C 38.5 °F /  3.6 °C 30.14in /  1020.5hPa WSW 2.0mph /  3.2km/h 8.0mph /  12.9km/h 17% 0.00in /  0mm 972.0 W/m2
11:09 88.3 °F /  31.3 °C 37.9 °F /  3.3 °C 30.14in /  1020.5hPa NNW 4.9mph /  7.9km/h 9.0mph /  14.5km/h 17% 0.00in /  0mm 1005.0 W/m2
11:14 88.9 °F /  31.6 °C 39.9 °F /  4.4 °C 30.14in /  1020.5hPa West 4.9mph /  7.9km/h 7.0mph /  11.3km/h 18% 0.00in /  0mm 1027.0 W/m2
11:20 89.2 °F /  31.8 °C 37.2 °F /  2.9 °C 30.14in /  1020.5hPa ENE 0.9mph /  1.4km/h 5.0mph /  8km/h 16% 0.00in /  0mm 1032.0 W/m2
11:25 90.0 °F /  32.2 °C 37.8 °F /  3.2 °C 30.13in /  1020.2hPa NW 0.9mph /  1.4km/h 5.0mph /  8km/h 16% 0.00in /  0mm 1028.0 W/m2
11:31 90.5 °F /  32.5 °C 38.1 °F /  3.4 °C 30.13in /  1020.2hPa NNE 2.0mph /  3.2km/h 4.0mph /  6.4km/h 16% 0.00in /  0mm 1063.0 W/m2
11:32 90.7 °F /  32.6 °C 38.3 °F /  3.5 °C 30.13in /  1020.2hPa NNW 2.0mph /  3.2km/h 4.0mph /  6.4km/h 16% 0.00in /  0mm 1067.0 W/m2
11:36 90.9 °F /  32.7 °C 36.9 °F /  2.7 °C 30.13in /  1020.2hPa Calm   5.0mph /  8km/h 15% 0.00in /  0mm 1079.0 W/m2
11:37 90.9 °F /  32.7 °C 36.9 °F /  2.7 °C 30.13in /  1020.2hPa NW 0.9mph /  1.4km/h 5.0mph /  8km/h 15% 0.00in /  0mm 1083.0 W/m2
11:42 90.9 °F /  32.7 °C 36.9 °F /  2.7 °C 30.13in /  1020.2hPa South 0.9mph /  1.4km/h 4.0mph /  6.4km/h 15% 0.00in /  0mm 160.0 W/m2
11:47 90.7 °F /  32.6 °C 36.7 °F /  2.6 °C 30.12in /  1019.9hPa Calm   4.0mph /  6.4km/h 15% 0.00in /  0mm 1120.0 W/m2
11:52 91.0 °F /  32.8 °C 38.7 °F /  3.7 °C 30.12in /  1019.9hPa West 0.9mph /  1.4km/h 8.0mph /  12.9km/h 16% 0.00in /  0mm 1187.0 W/m2
11:57 90.9 °F /  32.7 °C 36.9 °F /  2.7 °C 30.12in /  1019.9hPa NNW 4.0mph /  6.4km/h 7.0mph /  11.3km/h 15% 0.00in /  0mm 229.0 W/m2
12:03 90.7 °F /  32.6 °C 36.7 °F /  2.6 °C 30.12in /  1019.9hPa SSW 6.0mph /  9.7km/h 9.0mph /  14.5km/h 15% 0.00in /  0mm 1174.0 W/m2
12:09 90.5 °F /  32.5 °C 38.1 °F /  3.4 °C 30.11in /  1019.5hPa SE 2.9mph /  4.7km/h 6.0mph /  9.7km/h 16% 0.00in /  0mm 1188.0 W/m2
12:12 90.7 °F /  32.6 °C 38.3 °F /  3.5 °C 30.12in /  1019.9hPa West 2.0mph /  3.2km/h 7.0mph /  11.3km/h 16% 0.00in /  0mm 1209.0 W/m2
12:14 90.7 °F /  32.6 °C 36.7 °F /  2.6 °C 30.11in /  1019.5hPa SW 0.9mph /  1.4km/h 3.0mph /  4.8km/h 15% 0.00in /  0mm 1230.0 W/m2
12:20 90.0 °F /  32.2 °C 37.8 °F /  3.2 °C 30.11in /  1019.5hPa Calm   4.0mph /  6.4km/h 16% 0.00in /  0mm 1290.0 W/m2
12:26 89.8 °F /  32.1 °C 37.6 °F /  3.1 °C 30.11in /  1019.5hPa NNW 4.9mph /  7.9km/h 8.0mph /  12.9km/h 16% 0.00in /  0mm 230.0 W/m2
12:32 89.4 °F /  31.9 °C 37.4 °F /  3 °C 30.11in /  1019.5hPa NW 6.9mph /  11.1km/h 9.0mph /  14.5km/h 16% 0.00in /  0mm 257.0 W/m2
12:37 89.1 °F /  31.7 °C 37.0 °F /  2.8 °C 30.11in /  1019.5hPa North 0.9mph /  1.4km/h 7.0mph /  11.3km/h 16% 0.00in /  0mm 367.0 W/m2
12:42 89.4 °F /  31.9 °C 37.4 °F /  3 °C 30.11in /  1019.5hPa NW 2.0mph /  3.2km/h 7.0mph /  11.3km/h 16% 0.00in /  0mm 1378.0 W/m2
12:47 90.0 °F /  32.2 °C 37.8 °F /  3.2 °C 30.11in /  1019.5hPa WSW 0.9mph /  1.4km/h 6.0mph /  9.7km/h 16% 0.00in /  0mm 283.0 W/m2
12:52 89.2 °F /  31.8 °C 37.2 °F /  2.9 °C 30.10in /  1019.2hPa SSW 2.9mph /  4.7km/h 7.0mph /  11.3km/h 16% 0.00in /  0mm 1232.0 W/m2
12:57 89.2 °F /  31.8 °C 37.2 °F /  2.9 °C 30.10in /  1019.2hPa South 0.9mph /  1.4km/h 5.0mph /  8km/h 16% 0.00in /  0mm 1238.0 W/m2
13:03 89.4 °F /  31.9 °C 37.4 °F /  3 °C 30.10in /  1019.2hPa Calm   5.0mph /  8km/h 16% 0.00in /  0mm 1246.0 W/m2
13:10 91.0 °F /  32.8 °C 37.0 °F /  2.8 °C 30.09in /  1018.8hPa North 0.9mph /  1.4km/h 4.0mph /  6.4km/h 15% 0.00in /  0mm 302.0 W/m2
13:13 91.4 °F /  33 °C 37.2 °F /  2.9 °C 30.09in /  1018.8hPa West 4.9mph /  7.9km/h 7.0mph /  11.3km/h 15% 0.00in /  0mm 355.0 W/m2
13:15 91.2 °F /  32.9 °C 37.0 °F /  2.8 °C 30.09in /  1018.8hPa Calm   4.0mph /  6.4km/h 15% 0.00in /  0mm 262.0 W/m2
13:18 90.9 °F /  32.7 °C 36.9 °F /  2.7 °C 30.09in /  1018.8hPa Calm   3.0mph /  4.8km/h 15% 0.00in /  0mm 216.0 W/m2
13:20 90.7 °F /  32.6 °C 36.7 °F /  2.6 °C 30.09in /  1018.8hPa Calm   4.0mph /  6.4km/h 15% 0.00in /  0mm 207.0 W/m2
13:23 90.1 °F /  32.3 °C 37.9 °F /  3.3 °C 30.09in /  1018.8hPa Calm   4.0mph /  6.4km/h 16% 0.00in /  0mm 195.0 W/m2
13:25 89.8 °F /  32.1 °C 37.6 °F /  3.1 °C 30.09in /  1018.8hPa SE 4.0mph /  6.4km/h 5.0mph /  8km/h 16% 0.00in /  0mm 190.0 W/m2
13:30 89.1 °F /  31.7 °C 37.0 °F /  2.8 °C 30.09in /  1018.8hPa SSE 4.0mph /  6.4km/h 6.0mph /  9.7km/h 16% 0.00in /  0mm 171.0 W/m2
13:35 88.5 °F /  31.4 °C 36.7 °F /  2.6 °C 30.09in /  1018.8hPa ESE 2.0mph /  3.2km/h 8.0mph /  12.9km/h 16% 0.00in /  0mm 158.0 W/m2
13:40 88.3 °F /  31.3 °C 36.5 °F /  2.5 °C 30.09in /  1018.8hPa SSE 2.0mph /  3.2km/h 4.0mph /  6.4km/h 16% 0.00in /  0mm 156.0 W/m2
13:46 88.2 °F /  31.2 °C 37.9 °F /  3.3 °C 30.09in /  1018.8hPa Calm   4.0mph /  6.4km/h 17% 0.00in /  0mm 162.0 W/m2
13:54 88.2 °F /  31.2 °C 37.9 °F /  3.3 °C 30.09in /  1018.8hPa Calm   1.0mph /  1.6km/h 17% 0.00in /  0mm 183.0 W/m2
13:59 88.2 °F /  31.2 °C 37.9 °F /  3.3 °C 30.09in /  1018.8hPa Calm   2.0mph /  3.2km/h 17% 0.00in /  0mm 193.0 W/m2
14:04 88.0 °F /  31.1 °C 37.8 °F /  3.2 °C 30.08in /  1018.5hPa SE 0.9mph /  1.4km/h 1.0mph /  1.6km/h 17% 0.00in /  0mm 227.0 W/m2
14:09 88.0 °F /  31.1 °C 39.2 °F /  4 °C 30.08in /  1018.5hPa SSW 4.0mph /  6.4km/h 5.0mph /  8km/h 18% 0.00in /  0mm 253.0 W/m2
14:14 88.0 °F /  31.1 °C 37.8 °F /  3.2 °C 30.08in /  1018.5hPa Calm   3.0mph /  4.8km/h 17% 0.00in /  0mm 292.0 W/m2
14:20 88.0 °F /  31.1 °C 36.1 °F /  2.3 °C 30.07in /  1018.2hPa SW 4.0mph /  6.4km/h 5.0mph /  8km/h 16% 0.00in /  0mm 418.0 W/m2
14:24 88.2 °F /  31.2 °C 37.9 °F /  3.3 °C 30.07in /  1018.2hPa SW 2.0mph /  3.2km/h 4.0mph /  6.4km/h 17% 0.00in /  0mm 424.0 W/m2
14:26 88.2 °F /  31.2 °C 37.9 °F /  3.3 °C 30.07in /  1018.2hPa South 0.9mph /  1.4km/h 3.0mph /  4.8km/h 17% 0.00in /  0mm 424.0 W/m2
14:31 89.1 °F /  31.7 °C 37.0 °F /  2.8 °C 30.07in /  1018.2hPa Calm   5.0mph /  8km/h 16% 0.00in /  0mm 962.0 W/m2
14:37 90.1 °F /  32.3 °C 36.3 °F /  2.4 °C 30.07in /  1018.2hPa WNW 2.0mph /  3.2km/h 3.0mph /  4.8km/h 15% 0.00in /  0mm 359.0 W/m2
14:43 90.0 °F /  32.2 °C 37.8 °F /  3.2 °C 30.07in /  1018.2hPa SW 4.0mph /  6.4km/h 7.0mph /  11.3km/h 16% 0.00in /  0mm 352.0 W/m2
14:49 89.4 °F /  31.9 °C 37.4 °F /  3 °C 30.07in /  1018.2hPa Calm   3.0mph /  4.8km/h 16% 0.00in /  0mm 360.0 W/m2
14:54 89.4 °F /  31.9 °C 37.4 °F /  3 °C 30.06in /  1017.8hPa WNW 0.9mph /  1.4km/h 2.0mph /  3.2km/h 16% 0.00in /  0mm 355.0 W/m2
14:59 89.6 °F /  32 °C 35.8 °F /  2.1 °C 30.06in /  1017.8hPa Calm   3.0mph /  4.8km/h 15% 0.00in /  0mm 323.0 W/m2
15:05 89.8 °F /  32.1 °C 37.6 °F /  3.1 °C 30.06in /  1017.8hPa ENE 0.9mph /  1.4km/h 1.0mph /  1.6km/h 16% 0.00in /  0mm 316.0 W/m2
15:11 90.0 °F /  32.2 °C 36.1 °F /  2.3 °C 30.06in /  1017.8hPa NE 0.9mph /  1.4km/h 5.0mph /  8km/h 15% 0.00in /  0mm 339.0 W/m2
15:17 90.0 °F /  32.2 °C 37.8 °F /  3.2 °C 30.06in /  1017.8hPa North 0.9mph /  1.4km/h 3.0mph /  4.8km/h 16% 0.00in /  0mm 425.0 W/m2
15:23 90.7 °F /  32.6 °C 36.7 °F /  2.6 °C 30.05in /  1017.5hPa NE 2.9mph /  4.7km/h 6.0mph /  9.7km/h 15% 0.00in /  0mm 612.0 W/m2
15:28 91.6 °F /  33.1 °C 35.6 °F /  2 °C 30.05in /  1017.5hPa NW 2.9mph /  4.7km/h 5.0mph /  8km/h 14% 0.00in /  0mm 1121.0 W/m2
15:34 92.5 °F /  33.6 °C 38.1 °F /  3.4 °C 30.05in /  1017.5hPa SSW 2.0mph /  3.2km/h 4.0mph /  6.4km/h 15% 0.00in /  0mm 638.0 W/m2
15:40 93.6 °F /  34.2 °C 37.2 °F /  2.9 °C 30.05in /  1017.5hPa NNW 4.0mph /  6.4km/h 4.0mph /  6.4km/h 14% 0.00in /  0mm 1132.0 W/m2
15:47 94.5 °F /  34.7 °C 36.0 °F /  2.2 °C 30.04in /  1017.2hPa ESE 2.0mph /  3.2km/h 6.0mph /  9.7km/h 13% 0.00in /  0mm 1148.0 W/m2
15:52 94.8 °F /  34.9 °C 36.3 °F /  2.4 °C 30.04in /  1017.2hPa ENE 4.0mph /  6.4km/h 9.0mph /  14.5km/h 13% 0.00in /  0mm 425.0 W/m2
15:59 94.5 °F /  34.7 °C 36.0 °F /  2.2 °C 30.04in /  1017.2hPa North 4.0mph /  6.4km/h 4.0mph /  6.4km/h 13% 0.00in /  0mm 603.0 W/m2
16:04 94.5 °F /  34.7 °C 36.0 °F /  2.2 °C 30.04in /  1017.2hPa Calm   7.0mph /  11.3km/h 13% 0.00in /  0mm 663.0 W/m2
16:10 95.0 °F /  35 °C 36.5 °F /  2.5 °C 30.04in /  1017.2hPa NE 4.0mph /  6.4km/h 6.0mph /  9.7km/h 13% 0.00in /  0mm 311.0 W/m2
16:16 94.5 °F /  34.7 °C 36.0 °F /  2.2 °C 30.04in /  1017.2hPa NNE 4.0mph /  6.4km/h 4.0mph /  6.4km/h 13% 0.00in /  0mm 255.0 W/m2
16:21 93.7 °F /  34.3 °C 35.4 °F /  1.9 °C 30.03in /  1016.8hPa North 4.0mph /  6.4km/h 5.0mph /  8km/h 13% 0.00in /  0mm 243.0 W/m2
16:22 93.6 °F /  34.2 °C 35.4 °F /  1.9 °C 30.03in /  1016.8hPa North 4.0mph /  6.4km/h 5.0mph /  8km/h 13% 0.00in /  0mm 244.0 W/m2
16:27 92.8 °F /  33.8 °C 34.7 °F /  1.5 °C 30.03in /  1016.8hPa NNE 2.9mph /  4.7km/h 5.0mph /  8km/h 13% 0.00in /  0mm 251.0 W/m2
16:32 92.3 °F /  33.5 °C 34.3 °F /  1.3 °C 30.03in /  1016.8hPa NE 0.9mph /  1.4km/h 8.0mph /  12.9km/h 13% 0.00in /  0mm 262.0 W/m2
16:37 91.9 °F /  33.3 °C 36.0 °F /  2.2 °C 30.03in /  1016.8hPa ENE 2.9mph /  4.7km/h 4.0mph /  6.4km/h 14% 0.00in /  0mm 262.0 W/m2
16:44 91.8 °F /  33.2 °C 35.8 °F /  2.1 °C 30.03in /  1016.8hPa Calm   2.0mph /  3.2km/h 14% 0.00in /  0mm 274.0 W/m2
16:45 91.8 °F /  33.2 °C 35.8 °F /  2.1 °C 30.03in /  1016.8hPa Calm   1.0mph /  1.6km/h 14% 0.00in /  0mm 278.0 W/m2
16:50 91.8 °F /  33.2 °C 35.8 °F /  2.1 °C 30.02in /  1016.5hPa NW 2.0mph /  3.2km/h 3.0mph /  4.8km/h 14% 0.00in /  0mm 290.0 W/m2
16:56 91.8 °F /  33.2 °C 34.0 °F /  1.1 °C 30.02in /  1016.5hPa Calm   2.0mph /  3.2km/h 13% 0.00in /  0mm 294.0 W/m2
17:01 91.9 °F /  33.3 °C 37.8 °F /  3.2 °C 30.02in /  1016.5hPa East 0.9mph /  1.4km/h 2.0mph /  3.2km/h 15% 0.00in /  0mm 308.0 W/m2
17:06 91.6 °F /  33.1 °C 33.8 °F /  1 °C 30.02in /  1016.5hPa East 2.0mph /  3.2km/h 2.0mph /  3.2km/h 13% 0.00in /  0mm 322.0 W/m2
17:14 91.6 °F /  33.1 °C 37.4 °F /  3 °C 30.02in /  1016.5hPa East 0.9mph /  1.4km/h 5.0mph /  8km/h 15% 0.00in /  0mm 262.0 W/m2
17:21 91.6 °F /  33.1 °C 33.8 °F /  1 °C 30.02in /  1016.5hPa NE 0.9mph /  1.4km/h 3.0mph /  4.8km/h 13% 0.00in /  0mm 206.0 W/m2
17:24 91.6 °F /  33.1 °C 35.6 °F /  2 °C 30.02in /  1016.5hPa SE 2.0mph /  3.2km/h 4.0mph /  6.4km/h 14% 0.00in /  0mm 209.0 W/m2
17:26 91.2 °F /  32.9 °C 35.4 °F /  1.9 °C 30.02in /  1016.5hPa Calm   2.0mph /  3.2km/h 14% 0.00in /  0mm 339.0 W/m2
17:29 91.2 °F /  32.9 °C 35.4 °F /  1.9 °C 30.02in /  1016.5hPa Calm   1.0mph /  1.6km/h 14% 0.00in /  0mm 471.0 W/m2
17:34 91.4 °F /  33 °C 35.6 °F /  2 °C 30.02in /  1016.5hPa NNW 2.0mph /  3.2km/h 5.0mph /  8km/h 14% 0.00in /  0mm 192.0 W/m2
17:39 91.0 °F /  32.8 °C 35.2 °F /  1.8 °C 30.02in /  1016.5hPa Calm   5.0mph /  8km/h 14% 0.00in /  0mm 169.0 W/m2
17:46 90.7 °F /  32.6 °C 34.9 °F /  1.6 °C 30.02in /  1016.5hPa ESE 2.0mph /  3.2km/h 7.0mph /  11.3km/h 14% 0.00in /  0mm 169.0 W/m2
17:52 90.3 °F /  32.4 °C 34.7 °F /  1.5 °C 30.02in /  1016.5hPa ENE 2.0mph /  3.2km/h 4.0mph /  6.4km/h 14% 0.00in /  0mm 160.0 W/m2
17:58 90.0 °F /  32.2 °C 34.3 °F /  1.3 °C 30.02in /  1016.5hPa ENE 2.0mph /  3.2km/h 2.0mph /  3.2km/h 14% 0.00in /  0mm 153.0 W/m2
18:04 90.0 °F /  32.2 °C 36.1 °F /  2.3 °C 30.02in /  1016.5hPa ESE 2.9mph /  4.7km/h 3.0mph /  4.8km/h 15% 0.00in /  0mm 134.0 W/m2
18:10 90.0 °F /  32.2 °C 36.1 °F /  2.3 °C 30.02in /  1016.5hPa Calm   1.0mph /  1.6km/h 15% 0.00in /  0mm 116.0 W/m2
18:11 90.0 °F /  32.2 °C 37.8 °F /  3.2 °C 30.02in /  1016.5hPa Calm   1.0mph /  1.6km/h 16% 0.00in /  0mm 114.0 W/m2
18:15 90.0 °F /  32.2 °C 34.3 °F /  1.3 °C 30.02in /  1016.5hPa Calm   2.0mph /  3.2km/h 14% 0.00in /  0mm 105.0 W/m2
18:20 89.8 °F /  32.1 °C 34.2 °F /  1.2 °C 30.02in /  1016.5hPa NE 2.0mph /  3.2km/h 3.0mph /  4.8km/h 14% 0.00in /  0mm 95.0 W/m2
18:26 89.4 °F /  31.9 °C 34.0 °F /  1.1 °C 30.02in /  1016.5hPa NE 0.9mph /  1.4km/h 3.0mph /  4.8km/h 14% 0.00in /  0mm 83.0 W/m2
18:31 89.2 °F /  31.8 °C 35.6 °F /  2 °C 30.02in /  1016.5hPa North 0.9mph /  1.4km/h 1.0mph /  1.6km/h 15% 0.00in /  0mm 79.0 W/m2
18:36 89.1 °F /  31.7 °C 33.6 °F /  0.9 °C 30.02in /  1016.5hPa Calm   5.0mph /  8km/h 14% 0.00in /  0mm 76.0 W/m2
18:42 88.9 °F /  31.6 °C 35.2 °F /  1.8 °C 30.02in /  1016.5hPa Calm   3.0mph /  4.8km/h 15% 0.00in /  0mm 67.0 W/m2
18:50 88.3 °F /  31.3 °C 34.9 °F /  1.6 °C 30.02in /  1016.5hPa NE 2.0mph /  3.2km/h 4.0mph /  6.4km/h 15% 0.00in /  0mm 54.0 W/m2
18:56 88.3 °F /  31.3 °C 34.9 °F /  1.6 °C 30.02in /  1016.5hPa NNE 2.0mph /  3.2km/h 4.0mph /  6.4km/h 15% 0.00in /  0mm 54.0 W/m2
19:01 88.0 °F /  31.1 °C 36.1 °F /  2.3 °C 30.02in /  1016.5hPa Calm   1.0mph /  1.6km/h 16% 0.00in /  0mm 49.0 W/m2
19:07 87.8 °F /  31 °C 36.0 °F /  2.2 °C 30.02in /  1016.5hPa North 2.0mph /  3.2km/h 3.0mph /  4.8km/h 16% 0.00in /  0mm 47.0 W/m2
19:12 87.8 °F /  31 °C 34.3 °F /  1.3 °C 30.03in /  1016.8hPa Calm   1.0mph /  1.6km/h 15% 0.00in /  0mm 44.0 W/m2
19:17 87.6 °F /  30.9 °C 34.3 °F /  1.3 °C 30.03in /  1016.8hPa NNW 0.9mph /  1.4km/h 2.0mph /  3.2km/h 15% 0.00in /  0mm 35.0 W/m2
19:25 87.4 °F /  30.8 °C 35.8 °F /  2.1 °C 30.03in /  1016.8hPa Calm   1.0mph /  1.6km/h 16% 0.00in /  0mm 23.0 W/m2
19:26 87.4 °F /  30.8 °C 35.8 °F /  2.1 °C 30.03in /  1016.8hPa Calm   2.0mph /  3.2km/h 16% 0.00in /  0mm 21.0 W/m2
19:32 87.1 °F /  30.6 °C 41.2 °F /  5.1 °C 30.03in /  1016.8hPa SW 2.9mph /  4.7km/h 5.0mph /  8km/h 20% 0.00in /  0mm 12.0 W/m2
19:37 86.4 °F /  30.2 °C 43.0 °F /  6.1 °C 30.04in /  1017.2hPa SSW 2.9mph /  4.7km/h 8.0mph /  12.9km/h 22% 0.00in /  0mm 5.0 W/m2
19:42 85.6 °F /  29.8 °C 43.5 °F /  6.4 °C 30.04in /  1017.2hPa WSW 4.9mph /  7.9km/h 9.0mph /  14.5km/h 23% 0.00in /  0mm 0.0 W/m2
19:46 85.1 °F /  29.5 °C 44.2 °F /  6.8 °C 30.04in /  1017.2hPa West 6.9mph /  11.1km/h 11.0mph /  17.7km/h 24% 0.00in /  0mm 0.0 W/m2
19:48 84.7 °F /  29.3 °C 43.9 °F /  6.6 °C 30.04in /  1017.2hPa WSW 6.9mph /  11.1km/h 10.0mph /  16.1km/h 24% 0.00in /  0mm 0.0 W/m2
19:54 83.8 °F /  28.8 °C 44.2 °F /  6.8 °C 30.04in /  1017.2hPa South 4.0mph /  6.4km/h 14.0mph /  22.5km/h 25% 0.00in /  0mm 0.0 W/m2
19:59 83.7 °F /  28.7 °C 44.1 °F /  6.7 °C 30.04in /  1017.2hPa West 4.9mph /  7.9km/h 9.0mph /  14.5km/h 25% 0.00in /  0mm 0.0 W/m2
20:05 83.1 °F /  28.4 °C 43.7 °F /  6.5 °C 30.04in /  1017.2hPa WSW 8.1mph /  13km/h 8.1mph /  13km/h 25% 0.00in /  0mm 0.0 W/m2
20:10 82.9 °F /  28.3 °C 43.5 °F /  6.4 °C 30.04in /  1017.2hPa West 4.9mph /  7.9km/h 10.0mph /  16.1km/h 25% 0.00in /  0mm 0.0 W/m2
20:15 82.8 °F /  28.2 °C 43.3 °F /  6.3 °C 30.05in /  1017.5hPa SW 0.9mph /  1.4km/h 8.0mph /  12.9km/h 25% 0.00in /  0mm 0.0 W/m2
20:20 82.4 °F /  28 °C 43.0 °F /  6.1 °C 30.05in /  1017.5hPa SW 0.9mph /  1.4km/h 5.0mph /  8km/h 25% 0.00in /  0mm 0.0 W/m2
20:25 82.2 °F /  27.9 °C 43.9 °F /  6.6 °C 30.05in /  1017.5hPa Calm   10.0mph /  16.1km/h 26% 0.00in /  0mm 0.0 W/m2
20:31 82.0 °F /  27.8 °C 42.8 °F /  6 °C 30.05in /  1017.5hPa WSW 2.9mph /  4.7km/h 7.0mph /  11.3km/h 25% 0.00in /  0mm 0.0 W/m2
20:37 81.7 °F /  27.6 °C 44.4 °F /  6.9 °C 30.05in /  1017.5hPa SW 0.9mph /  1.4km/h 8.0mph /  12.9km/h 27% 0.00in /  0mm 0.0 W/m2
20:43 81.3 °F /  27.4 °C 44.1 °F /  6.7 °C 30.06in /  1017.8hPa Calm   5.0mph /  8km/h 27% 0.00in /  0mm 0.0 W/m2
20:49 81.0 °F /  27.2 °C 44.8 °F /  7.1 °C 30.06in /  1017.8hPa Calm   1.0mph /  1.6km/h 28% 0.00in /  0mm 0.0 W/m2
20:54 80.8 °F /  27.1 °C 44.6 °F /  7 °C 30.06in /  1017.8hPa Calm   2.0mph /  3.2km/h 28% 0.00in /  0mm 0.0 W/m2
20:59 80.4 °F /  26.9 °C 44.2 °F /  6.8 °C 30.06in /  1017.8hPa Calm   3.0mph /  4.8km/h 28% 0.00in /  0mm 0.0 W/m2
21:04 80.1 °F /  26.7 °C 44.1 °F /  6.7 °C 30.06in /  1017.8hPa South 0.9mph /  1.4km/h 4.0mph /  6.4km/h 28% 0.00in /  0mm 0.0 W/m2
21:09 79.9 °F /  26.6 °C 43.9 °F /  6.6 °C 30.07in /  1018.2hPa WSW 2.9mph /  4.7km/h 4.0mph /  6.4km/h 28% 0.00in /  0mm 0.0 W/m2
21:19 79.7 °F /  26.5 °C 43.7 °F /  6.5 °C 30.07in /  1018.2hPa Calm   1.0mph /  1.6km/h 28% 0.00in /  0mm 0.0 W/m2
21:25 79.5 °F /  26.4 °C 44.4 °F /  6.9 °C 30.07in /  1018.2hPa Calm   1.0mph /  1.6km/h 29% 0.00in /  0mm 0.0 W/m2
21:30 79.3 °F /  26.3 °C 43.3 °F /  6.3 °C 30.07in /  1018.2hPa South 2.0mph /  3.2km/h 4.0mph /  6.4km/h 28% 0.00in /  0mm 0.0 W/m2
21:35 79.3 °F /  26.3 °C 44.2 °F /  6.8 °C 30.07in /  1018.2hPa SE 0.9mph /  1.4km/h 6.0mph /  9.7km/h 29% 0.00in /  0mm 0.0 W/m2
21:40 79.2 °F /  26.2 °C 43.2 °F /  6.2 °C 30.07in /  1018.2hPa SSE 2.0mph /  3.2km/h 9.0mph /  14.5km/h 28% 0.00in /  0mm 0.0 W/m2
21:46 78.8 °F /  26 °C 43.0 °F /  6.1 °C 30.07in /  1018.2hPa East 2.9mph /  4.7km/h 5.0mph /  8km/h 28% 0.00in /  0mm 0.0 W/m2
21:51 78.6 °F /  25.9 °C 42.8 °F /  6 °C 30.07in /  1018.2hPa ESE 2.9mph /  4.7km/h 3.0mph /  4.8km/h 28% 0.00in /  0mm 0.0 W/m2
21:56 78.6 °F /  25.9 °C 42.8 °F /  6 °C 30.08in /  1018.5hPa SSE 0.9mph /  1.4km/h 3.0mph /  4.8km/h 28% 0.00in /  0mm 0.0 W/m2
22:01 78.6 °F /  25.9 °C 43.7 °F /  6.5 °C 30.08in /  1018.5hPa Calm   4.0mph /  6.4km/h 29% 0.00in /  0mm 0.0 W/m2
22:08 78.6 °F /  25.9 °C 43.7 °F /  6.5 °C 30.08in /  1018.5hPa South 0.9mph /  1.4km/h 2.0mph /  3.2km/h 29% 0.00in /  0mm 0.0 W/m2
22:13 78.4 °F /  25.8 °C 43.5 °F /  6.4 °C 30.08in /  1018.5hPa Calm   1.0mph /  1.6km/h 29% 0.00in /  0mm 0.0 W/m2
22:19 78.4 °F /  25.8 °C 43.5 °F /  6.4 °C 30.08in /  1018.5hPa Calm   2.0mph /  3.2km/h 29% 0.00in /  0mm 0.0 W/m2
22:24 78.4 °F /  25.8 °C 43.5 °F /  6.4 °C 30.08in /  1018.5hPa Calm   6.0mph /  9.7km/h 29% 0.00in /  0mm 0.0 W/m2
22:30 78.6 °F /  25.9 °C 43.7 °F /  6.5 °C 30.09in /  1018.8hPa SSE 2.9mph /  4.7km/h 4.0mph /  6.4km/h 29% 0.00in /  0mm 0.0 W/m2
22:35 78.6 °F /  25.9 °C 43.7 °F /  6.5 °C 30.09in /  1018.8hPa South 6.9mph /  11.1km/h 11.0mph /  17.7km/h 29% 0.00in /  0mm 0.0 W/m2
22:40 78.6 °F /  25.9 °C 43.7 °F /  6.5 °C 30.09in /  1018.8hPa SE 2.9mph /  4.7km/h 6.0mph /  9.7km/h 29% 0.00in /  0mm 0.0 W/m2
22:45 78.6 °F /  25.9 °C 43.7 °F /  6.5 °C 30.09in /  1018.8hPa SW 2.0mph /  3.2km/h 6.0mph /  9.7km/h 29% 0.00in /  0mm 0.0 W/m2
22:50 78.6 °F /  25.9 °C 44.6 °F /  7 °C 30.09in /  1018.8hPa SSW 2.0mph /  3.2km/h 6.0mph /  9.7km/h 30% 0.00in /  0mm 0.0 W/m2
22:54 78.4 °F /  25.8 °C 44.4 °F /  6.9 °C 30.10in /  1019.2hPa WSW 2.9mph /  4.7km/h 3.0mph /  4.8km/h 30% 0.00in /  0mm 0.0 W/m2
23:01 78.3 °F /  25.7 °C 44.2 °F /  6.8 °C 30.10in /  1019.2hPa West 0.9mph /  1.4km/h 3.0mph /  4.8km/h 30% 0.00in /  0mm 0.0 W/m2
23:06 78.1 °F /  25.6 °C 44.1 °F /  6.7 °C 30.09in /  1018.8hPa WNW 4.9mph /  7.9km/h 7.0mph /  11.3km/h 30% 0.00in /  0mm 0.0 W/m2
23:11 77.9 °F /  25.5 °C 43.2 °F /  6.2 °C 30.10in /  1019.2hPa SSW 2.9mph /  4.7km/h 7.0mph /  11.3km/h 29% 0.00in /  0mm 0.0 W/m2
23:16 78.1 °F /  25.6 °C 44.1 °F /  6.7 °C 30.10in /  1019.2hPa SSW 2.0mph /  3.2km/h 4.0mph /  6.4km/h 30% 0.00in /  0mm 0.0 W/m2
23:21 78.1 °F /  25.6 °C 44.1 °F /  6.7 °C 30.10in /  1019.2hPa SSW 0.9mph /  1.4km/h 4.0mph /  6.4km/h 30% 0.00in /  0mm 0.0 W/m2
23:26 78.1 °F /  25.6 °C 44.1 °F /  6.7 °C 30.10in /  1019.2hPa SW 4.0mph /  6.4km/h 8.0mph /  12.9km/h 30% 0.00in /  0mm 0.0 W/m2
23:31 78.1 °F /  25.6 °C 44.1 °F /  6.7 °C 30.09in /  1018.8hPa Calm   5.0mph /  8km/h 30% 0.00in /  0mm 0.0 W/m2
23:36 77.9 °F /  25.5 °C 44.8 °F /  7.1 °C 30.09in /  1018.8hPa South 0.9mph /  1.4km/h 6.0mph /  9.7km/h 31% 0.00in /  0mm 0.0 W/m2
23:41 77.7 °F /  25.4 °C 44.6 °F /  7 °C 30.09in /  1018.8hPa SSW 4.0mph /  6.4km/h 6.0mph /  9.7km/h 31% 0.00in /  0mm 0.0 W/m2
23:48 77.5 °F /  25.3 °C 44.6 °F /  7 °C 30.09in /  1018.8hPa SSW 0.9mph /  1.4km/h 7.0mph /  11.3km/h 31% 0.00in /  0mm 0.0 W/m2
23:51 77.5 °F /  25.3 °C 44.6 °F /  7 °C 30.09in /  1018.8hPa SW 2.9mph /  4.7km/h 7.0mph /  11.3km/h 31% 0.00in /  0mm 0.0 W/m2
23:54 77.5 °F /  25.3 °C 44.6 °F /  7 °C 30.09in /  1018.8hPa SSW 2.9mph /  4.7km/h 6.0mph /  9.7km/h 31% 0.00in /  0mm 0.0 W/m2
Olympia, Windhoek, Namibia
Compliments of Weather Underground - 3.25 mb